Terminal Aerodrome Forecast
Issued by NWS

Home | Current Version | Previous Version | Text Only | Print | Product List | Glossary Off
Versions: 1 2 3 4 5 6 7 8 9 10 11 12 13 14 15 16 17

000
FTUS41 KCLE 152300
TAFFDY
TAF
KFDY 152334Z 1600/1624 07010KT P6SM BKN200
     FM161000 12010KT 6SM -SHRA BKN040 OVC100
     FM161500 17012G20KT P6SM OVC028
      TEMPO 1615/1619 6SM -SHRA=

USA.gov is the U.S. government's official web portal to all federal, state and local government web resources and services.